createdAt,value
2022-08-03T00:03:42.136Z,71
2022-08-03T00:08:41.201Z,71
2022-08-03T00:13:40.409Z,71
2022-08-03T00:18:40.149Z,71
2022-08-03T00:23:52.973Z,71
2022-08-03T00:28:36.412Z,71
2022-08-03T00:34:03.431Z,71
2022-08-03T00:38:35.147Z,72
2022-08-03T00:43:35.923Z,72
2022-08-03T00:48:34.609Z,72
2022-08-03T00:53:34.470Z,72
2022-08-03T00:58:33.354Z,73
2022-08-03T00:59:54.930Z,73
2022-08-03T01:04:54.153Z,73
2022-08-03T01:09:53.548Z,73
2022-08-03T01:14:52.684Z,73
2022-08-03T01:19:52.217Z,73
2022-08-03T01:24:52.354Z,73
2022-08-03T01:29:51.193Z,74
2022-08-03T01:34:50.198Z,74
2022-08-03T01:39:48.310Z,74
2022-08-03T01:44:47.555Z,74
2022-08-03T01:49:46.734Z,74
2022-08-03T01:54:46.060Z,74
2022-08-03T01:58:57.233Z,74
2022-08-03T02:04:01.400Z,74
2022-08-03T02:08:55.751Z,74
2022-08-03T02:13:57.015Z,74
2022-08-03T02:18:53.485Z,74
2022-08-03T02:23:52.518Z,74
2022-08-03T02:28:51.499Z,75
2022-08-03T02:33:51.353Z,76
2022-08-03T02:38:50.390Z,76
2022-08-03T02:44:07.814Z,76
2022-08-03T02:48:49.508Z,77
2022-08-03T02:53:48.870Z,77
2022-08-03T02:58:47.732Z,77
2022-08-03T03:03:48.573Z,77
2022-08-03T03:08:44.560Z,77
2022-08-03T03:13:43.990Z,77
2022-08-03T03:18:42.980Z,77
2022-08-03T03:23:42.641Z,77
2022-08-03T03:28:42.257Z,77
2022-08-03T03:33:42.042Z,78
2022-08-03T03:38:40.750Z,78
2022-08-03T03:43:39.911Z,79
2022-08-03T03:48:41.589Z,79
2022-08-03T03:53:36.851Z,79
2022-08-03T03:58:35.850Z,79
2022-08-03T04:03:34.867Z,79
2022-08-03T04:08:34.227Z,79
2022-08-03T04:13:33.376Z,80
2022-08-03T04:18:33.395Z,80
2022-08-03T04:23:32.211Z,80
2022-08-03T04:28:32.756Z,79
2022-08-03T04:33:30.522Z,79
2022-08-03T04:38:28.538Z,79
2022-08-03T04:43:27.876Z,79
2022-08-03T04:48:27.057Z,79
2022-08-03T04:53:26.995Z,79
2022-08-03T04:58:26.604Z,79
2022-08-03T04:59:48.712Z,79
2022-08-03T05:04:47.998Z,77
2022-08-03T05:09:57.521Z,75
2022-08-03T05:14:44.742Z,73
2022-08-03T05:19:44.002Z,71
2022-08-03T05:24:43.027Z,70
2022-08-03T05:29:42.330Z,68
2022-08-03T05:34:42.171Z,67
2022-08-03T05:39:41.700Z,66
2022-08-03T05:44:41.976Z,66
2022-08-03T05:49:41.695Z,64
2022-08-03T05:54:57.970Z,64
2022-08-03T05:59:38.665Z,63
2022-08-03T06:04:11.929Z,62
2022-08-03T06:09:11.839Z,61
2022-08-03T06:14:11.189Z,61
2022-08-03T06:19:11.055Z,60
2022-08-03T06:24:10.555Z,60
2022-08-03T06:29:10.607Z,59
2022-08-03T06:34:35.978Z,58
2022-08-03T06:39:08.922Z,58
2022-08-03T06:44:14.550Z,57
2022-08-03T06:49:14.102Z,56
2022-08-03T06:54:13.971Z,55
2022-08-03T06:58:53.699Z,54
2022-08-03T07:03:53.818Z,54
2022-08-03T07:08:59.062Z,54
2022-08-03T07:13:51.686Z,55
2022-08-03T07:18:50.602Z,54
2022-08-03T07:23:49.969Z,52
2022-08-03T07:28:49.393Z,50
2022-08-03T07:33:49.332Z,48
2022-08-03T07:38:48.912Z,48
2022-08-03T07:43:49.550Z,47
2022-08-03T07:48:48.413Z,46
2022-08-03T07:53:48.910Z,45
2022-08-03T07:58:48.451Z,44
2022-08-03T08:03:53.904Z,43
2022-08-03T08:08:44.866Z,42
2022-08-03T08:13:45.306Z,42
2022-08-03T08:18:44.616Z,41
2022-08-03T08:23:57.115Z,41
2022-08-03T08:28:44.250Z,40
2022-08-03T08:34:04.890Z,39
2022-08-03T08:38:43.573Z,39
2022-08-03T08:43:43.764Z,40
2022-08-03T08:48:40.525Z,40
2022-08-03T08:53:39.663Z,39
2022-08-03T08:58:39.494Z,37
2022-08-03T09:03:38.525Z,38
2022-08-03T09:08:37.910Z,38
2022-08-03T09:13:37.812Z,38
2022-08-03T09:18:36.971Z,38
2022-08-03T09:24:02.636Z,37
2022-08-03T09:29:05.884Z,36
2022-08-03T09:33:36.584Z,36
2022-08-03T09:38:33.061Z,36
2022-08-03T09:43:32.172Z,35
2022-08-03T09:48:32.101Z,35
2022-08-03T09:53:31.825Z,36
2022-08-03T09:58:32.001Z,37
2022-08-03T10:00:08.395Z,36
2022-08-03T10:04:53.846Z,36
2022-08-03T10:09:51.266Z,36
2022-08-03T10:14:50.054Z,36
2022-08-03T10:19:49.351Z,35
2022-08-03T10:24:48.936Z,35
2022-08-03T10:29:49.135Z,35
2022-08-03T10:34:48.655Z,35
2022-08-03T10:39:48.570Z,35
2022-08-03T10:44:49.371Z,35
2022-08-03T10:49:47.145Z,35
2022-08-03T10:54:49.204Z,34
2022-08-03T10:59:11.795Z,33
2022-08-03T11:04:17.209Z,34
2022-08-03T11:09:10.436Z,33
2022-08-03T11:14:10.356Z,34
2022-08-03T11:19:11.950Z,33
2022-08-03T11:24:09.273Z,33
2022-08-03T11:29:08.305Z,32
2022-08-03T11:34:14.434Z,32
2022-08-03T11:39:17.583Z,33
2022-08-03T11:44:13.982Z,33
2022-08-03T11:49:13.713Z,33
2022-08-03T11:54:13.362Z,32
2022-08-03T11:59:22.598Z,32
2022-08-03T12:03:51.544Z,32
2022-08-03T12:08:51.941Z,32
2022-08-03T12:14:52.051Z,32
2022-08-03T12:18:47.636Z,32
2022-08-03T12:23:47.902Z,32
2022-08-03T12:28:50.326Z,32
2022-08-03T12:33:47.413Z,31
2022-08-03T12:38:49.227Z,32
2022-08-03T12:43:45.723Z,32
2022-08-03T12:48:44.511Z,32
2022-08-03T12:53:42.144Z,32
2022-08-03T12:58:41.642Z,32
2022-08-03T13:00:29.810Z,31
2022-08-03T13:05:10.427Z,31
2022-08-03T13:10:09.431Z,31
2022-08-03T13:15:01.702Z,31
2022-08-03T13:20:00.570Z,31
2022-08-03T13:24:59.648Z,31
2022-08-03T13:29:57.654Z,31
2022-08-03T13:34:56.947Z,31
2022-08-03T13:40:02.341Z,31
2022-08-03T13:44:55.590Z,31
2022-08-03T13:50:02.684Z,31
2022-08-03T13:54:54.922Z,31
2022-08-03T13:59:17.766Z,31
2022-08-03T14:04:22.683Z,32
2022-08-03T14:09:15.687Z,31
2022-08-03T14:14:15.307Z,32
2022-08-03T14:19:16.101Z,32
2022-08-03T14:24:13.809Z,32
2022-08-03T14:29:13.480Z,32
2022-08-03T14:34:13.206Z,32
2022-08-03T14:39:12.863Z,32
2022-08-03T14:44:12.142Z,32
2022-08-03T14:50:44.347Z,31
2022-08-03T14:54:09.617Z,31
2022-08-03T14:58:56.873Z,30
2022-08-03T15:03:56.638Z,30
2022-08-03T15:09:24.147Z,30
2022-08-03T15:13:55.958Z,30
2022-08-03T15:18:55.271Z,30
2022-08-03T15:23:55.166Z,30
2022-08-03T15:28:53.696Z,30
2022-08-03T15:33:52.983Z,30
2022-08-03T15:38:51.146Z,31
2022-08-03T15:43:50.113Z,31
2022-08-03T15:48:49.678Z,31
2022-08-03T15:53:48.875Z,31
2022-08-03T15:59:13.975Z,31
2022-08-03T16:03:48.647Z,31
2022-08-03T16:08:48.783Z,31
2022-08-03T16:14:37.885Z,31
2022-08-03T16:18:47.660Z,32
2022-08-03T16:23:47.927Z,32
2022-08-03T16:28:43.845Z,31
2022-08-03T16:33:42.748Z,31
2022-08-03T16:38:42.119Z,31
2022-08-03T16:43:41.979Z,31
2022-08-03T16:48:41.509Z,31
2022-08-03T16:54:12.370Z,31
2022-08-03T16:58:44.303Z,31
2022-08-03T17:04:04.107Z,31
2022-08-03T17:08:41.343Z,32
2022-08-03T17:13:40.478Z,32
2022-08-03T17:18:35.565Z,32
2022-08-03T17:23:36.302Z,33
2022-08-03T17:28:57.568Z,33
2022-08-03T17:33:36.245Z,32
2022-08-03T17:38:38.569Z,32
2022-08-03T17:44:17.687Z,32
2022-08-03T17:48:32.661Z,33
2022-08-03T17:53:53.165Z,33
2022-08-03T17:58:30.517Z,34
2022-08-03T17:59:53.531Z,34
2022-08-03T18:04:57.352Z,35
2022-08-03T18:10:11.130Z,35
2022-08-03T18:15:07.562Z,36
2022-08-03T18:20:09.173Z,36
2022-08-03T18:24:49.086Z,36
2022-08-03T18:29:48.121Z,37
2022-08-03T18:34:54.851Z,38
2022-08-03T18:39:52.740Z,39
2022-08-03T18:44:56.102Z,39
2022-08-03T18:49:45.729Z,40
2022-08-03T18:55:09.653Z,40
2022-08-03T18:59:16.247Z,42
2022-08-03T19:04:11.425Z,43
2022-08-03T19:09:10.343Z,44
2022-08-03T19:14:12.142Z,44
2022-08-03T19:19:09.097Z,45
2022-08-03T19:24:16.244Z,46
2022-08-03T19:29:15.892Z,47
2022-08-03T19:34:17.086Z,48
2022-08-03T19:39:12.204Z,48
2022-08-03T19:44:12.559Z,49
2022-08-03T19:49:16.281Z,50
2022-08-03T19:54:12.238Z,51
2022-08-03T19:58:53.948Z,52
2022-08-03T20:03:50.589Z,52
2022-08-03T21:13:17.946Z,53
2022-08-03T21:14:59.422Z,59
2022-08-03T21:19:59.317Z,60
2022-08-03T21:24:58.005Z,60
2022-08-03T21:29:57.294Z,61
2022-08-03T21:34:55.757Z,61
2022-08-03T21:39:55.294Z,62
2022-08-03T21:44:54.017Z,61
2022-08-03T21:50:09.375Z,62
2022-08-03T21:54:52.588Z,62
2022-08-03T21:59:13.556Z,63
2022-08-03T22:04:55.873Z,63
2022-08-03T22:09:12.480Z,63
2022-08-03T22:14:12.249Z,63
2022-08-03T22:19:08.896Z,63
2022-08-03T22:24:16.557Z,64
2022-08-03T22:29:14.981Z,64
2022-08-03T22:34:15.100Z,64
2022-08-03T22:39:26.428Z,65
2022-08-03T22:44:13.471Z,65
2022-08-03T22:49:13.736Z,65
2022-08-03T22:54:10.911Z,65
2022-08-03T22:58:57.061Z,64
2022-08-03T23:04:02.564Z,65
2022-08-03T23:08:55.814Z,65
2022-08-03T23:13:55.935Z,65
2022-08-03T23:18:55.214Z,64
2022-08-03T23:23:55.342Z,64
2022-08-03T23:28:53.316Z,64
2022-08-03T23:33:52.204Z,64
2022-08-03T23:38:51.615Z,64
2022-08-03T23:43:54.456Z,64
2022-08-03T23:48:50.239Z,64
2022-08-03T23:53:50.359Z,64
2022-08-03T23:58:49.790Z,64
